Time;durP1;ratioP1;P1;durP2;ratioP2;P2;SDS_P1;SDS_P2;PMS_P1;PMS_P2;Temp;Humidity;BMP_temperature;BMP_pressure;BME280_temperature;BME280_humidity;BME280_pressure;Samples;Min_cycle;Max_cycle;Signal;HPM_P1;HPM_P2
2022/12/12 00:00:45;;;;;;;29.70;12.73;;;0.80;65.60;;;;;;5084051;28;20047;-62
2022/12/12 00:03:11;;;;;;;32.67;13.73;;;0.40;65.40;;;;;;5075322;28;20032;-62
2022/12/12 00:05:38;;;;;;;35.30;14.43;;;0.40;65.50;;;;;;5076885;28;20032;-62
2022/12/12 00:08:03;;;;;;;35.70;14.05;;;0.40;65.60;;;;;;5086023;28;20139;-63
2022/12/12 00:10:29;;;;;;;29.45;13.13;;;0.40;65.60;;;;;;5080604;28;20021;-62
2022/12/12 00:12:55;;;;;;;27.33;12.23;;;0.40;65.70;;;;;;5080826;28;20032;-61
2022/12/12 00:15:20;;;;;;;23.98;12.27;;;0.40;65.80;;;;;;5084102;28;20088;-61
2022/12/12 00:17:46;;;;;;;24.05;12.65;;;0.40;65.80;;;;;;5077094;28;20044;-61
2022/12/12 00:20:12;;;;;;;20.05;11.15;;;0.40;65.80;;;;;;5075636;28;20447;-62
2022/12/12 00:22:37;;;;;;;18.48;10.32;;;0.40;65.70;;;;;;5082272;28;20021;-61
2022/12/12 00:25:03;;;;;;;20.45;10.98;;;0.50;65.70;;;;;;5081509;28;20549;-61
2022/12/12 00:27:31;;;;;;;23.25;11.43;;;0.30;65.50;;;;;;5076151;28;20466;-61
2022/12/12 00:29:57;;;;;;;20.85;10.48;;;0.30;65.50;;;;;;5071720;28;20422;-62
2022/12/12 00:32:22;;;;;;;19.85;10.70;;;0.30;65.50;;;;;;5085697;28;20033;-62
2022/12/12 00:34:48;;;;;;;22.48;11.65;;;0.30;65.50;;;;;;5066800;28;20032;-61
2022/12/12 00:37:13;;;;;;;21.50;10.73;;;0.30;65.60;;;;;;5079438;28;20043;-62
2022/12/12 00:39:39;;;;;;;19.52;10.55;;;0.20;65.60;;;;;;5079685;28;20032;-62
2022/12/12 00:42:05;;;;;;;20.13;10.45;;;0.20;65.70;;;;;;5080461;28;20084;-62
2022/12/12 00:44:31;;;;;;;18.88;9.65;;;0.30;65.70;;;;;;5075042;28;20021;-62
2022/12/12 00:46:56;;;;;;;20.13;10.23;;;0.20;65.50;;;;;;5078510;28;20048;-61
2022/12/12 00:49:22;;;;;;;22.00;11.98;;;0.20;65.50;;;;;;5074587;28;20036;-62
2022/12/12 00:51:48;;;;;;;25.08;11.07;;;0.10;65.50;;;;;;5077244;28;20037;-62
2022/12/12 00:54:13;;;;;;;17.75;9.27;;;0.10;65.50;;;;;;5081416;28;20055;-61
2022/12/12 00:56:39;;;;;;;18.95;9.60;;;0.10;65.60;;;;;;5063855;28;20024;-61
2022/12/12 00:59:06;;;;;;;18.70;9.98;;;0.10;65.60;;;;;;5066243;28;20053;-61
2022/12/12 01:01:33;;;;;;;21.05;10.13;;;0.10;65.70;;;;;;5077570;28;20090;-61
2022/12/12 01:03:59;;;;;;;17.48;9.77;;;0.10;65.90;;;;;;5077161;28;20035;-62
2022/12/12 01:06:26;;;;;;;17.25;9.40;;;0.10;65.80;;;;;;5076022;28;20068;-61
2022/12/12 01:08:52;;;;;;;17.92;9.57;;;0.10;65.90;;;;;;5073145;28;20120;-62
2022/12/12 01:11:19;;;;;;;21.08;10.38;;;0.10;65.90;;;;;;5063802;28;20021;-62
2022/12/12 01:13:47;;;;;;;20.88;11.10;;;0.10;65.80;;;;;;5058651;28;20033;-61
2022/12/12 01:16:13;;;;;;;22.38;11.60;;;0.00;65.80;;;;;;5076904;28;20459;-62
2022/12/12 01:18:40;;;;;;;18.65;9.68;;;0.00;65.70;;;;;;5079327;28;20074;-62
2022/12/12 01:21:14;;;;;;;21.50;10.32;;;0.10;65.70;;;;;;5082949;28;20021;-61
2022/12/12 01:23:40;;;;;;;;;;;0.00;65.70;;;;;;5076852;28;20025;-61
2022/12/12 01:26:12;;;;;;;16.73;8.88;;;0.00;65.70;;;;;;5082519;28;19935;-61
2022/12/12 01:28:38;;;;;;;16.42;9.25;;;0.10;65.60;;;;;;5077590;28;20354;-61
2022/12/12 01:31:04;;;;;;;18.23;10.02;;;-0.10;65.50;;;;;;5078715;28;20068;-62
2022/12/12 01:33:30;;;;;;;19.98;10.30;;;-0.10;65.50;;;;;;5083195;28;20027;-62
2022/12/12 01:35:56;;;;;;;19.02;9.30;;;-0.10;65.70;;;;;;5081873;28;20070;-61
2022/12/12 01:38:23;;;;;;;23.27;10.25;;;-0.20;65.70;;;;;;5079340;28;20024;-62
2022/12/12 01:40:49;;;;;;;18.95;10.38;;;-0.20;65.80;;;;;;5082906;28;20028;-62
2022/12/12 01:43:17;;;;;;;20.92;10.65;;;-0.20;65.80;;;;;;5082153;28;20086;-62
2022/12/12 01:45:58;;;;;;;18.67;9.98;;;-0.20;65.90;;;;;;5080972;28;20112;-60
2022/12/12 01:48:29;;;;;;;23.52;10.00;;;-0.30;66.00;;;;;;5073132;28;20511;-61
2022/12/12 01:50:58;;;;;;;21.80;10.85;;;-0.30;66.00;;;;;;5084185;28;20057;-61
2022/12/12 01:53:28;;;;;;;20.20;10.05;;;-0.30;66.00;;;;;;5076022;28;20032;-61
2022/12/12 01:55:56;;;;;;;19.65;9.77;;;-0.30;66.00;;;;;;5081854;28;20025;-61
2022/12/12 01:58:22;;;;;;;14.93;8.63;;;-0.30;66.10;;;;;;5079654;28;20024;-61
2022/12/12 02:00:48;;;;;;;15.80;8.98;;;-0.30;66.10;;;;;;5074305;28;20067;-61
2022/12/12 02:03:14;;;;;;;16.95;8.65;;;-0.30;66.10;;;;;;5073673;28;20025;-61
2022/12/12 02:05:49;;;;;;;18.38;9.43;;;-0.10;66.20;;;;;;5079092;28;20051;-62
2022/12/12 02:08:18;;;;;;;15.85;8.85;;;-0.30;66.00;;;;;;5067341;28;20112;-62
2022/12/12 02:10:44;;;;;;;15.80;9.48;;;-0.30;66.00;;;;;;5078975;28;20504;-60
2022/12/12 02:13:15;;;;;;;23.05;11.10;;;-0.20;66.10;;;;;;5056125;28;20040;-60
2022/12/12 02:15:57;;;;;;;20.17;10.88;;;-0.30;66.00;;;;;;5074735;28;20079;-62
2022/12/12 02:18:29;;;;;;;21.63;10.38;;;-0.40;66.10;;;;;;5080997;28;20036;-62
2022/12/12 02:21:01;;;;;;;19.52;10.50;;;0.00;66.40;;;;;;5078431;28;20554;-60
2022/12/12 02:23:48;;;;;;;20.77;10.77;;;-0.30;66.80;;;;;;5082641;28;20028;-61
2022/12/12 02:26:51;;;;;;;20.80;10.48;;;-0.40;66.10;;;;;;5077992;28;20504;-62
2022/12/12 02:29:35;;;;;;;17.98;10.13;;;-0.40;66.20;;;;;;5078762;28;20501;-62
2022/12/12 02:32:19;;;;;;;;;;;-0.40;66.10;;;;;;5077564;28;20033;-61
2022/12/12 02:35:04;;;;;;;19.65;9.57;;;-0.30;66.20;;;;;;5070061;28;19931;-61
2022/12/12 02:37:34;;;;;;;18.17;9.77;;;-0.40;65.90;;;;;;5073168;28;20028;-61
2022/12/12 02:40:21;;;;;;;19.58;9.90;;;-0.40;65.90;;;;;;5076436;28;20071;-62
2022/12/12 02:43:09;;;;;;;19.58;9.77;;;-0.40;66.10;;;;;;5077043;28;20495;-61
2022/12/12 02:45:53;;;;;;;17.77;9.50;;;-0.40;66.20;;;;;;5078075;28;20034;-61
2022/12/12 02:48:42;;;;;;;14.87;7.73;;;-0.50;66.20;;;;;;5070985;28;20048;-62
2022/12/12 02:51:10;;;;;;;15.50;9.10;;;-0.10;66.50;;;;;;5074966;28;21033;-61
2022/12/12 02:53:36;;;;;;;17.10;9.60;;;-0.50;66.20;;;;;;5078856;28;20463;-61
2022/12/12 02:56:05;;;;;;;18.98;10.60;;;-0.50;66.20;;;;;;5079959;28;20513;-62
2022/12/12 02:58:33;;;;;;;18.15;9.60;;;-0.50;66.30;;;;;;5075313;28;20024;-61
2022/12/12 03:01:26;;;;;;;23.00;10.00;;;-0.50;66.20;;;;;;5081883;28;20058;-62
2022/12/12 03:10:12;;;;;;;18.50;9.27;;;-0.50;66.30;;;;;;5076931;28;20100;-61
2022/12/12 03:13:03;;;;;;;19.08;10.60;;;-0.50;66.20;;;;;;5083052;28;20039;-62
2022/12/12 03:15:50;;;;;;;17.33;9.43;;;-0.50;66.20;;;;;;5079098;28;20462;-62
2022/12/12 03:18:22;;;;;;;18.80;9.85;;;-0.30;66.40;;;;;;5072389;28;20595;-61
2022/12/12 03:21:03;;;;;;;17.92;8.98;;;-0.60;66.00;;;;;;4945106;28;20375;-61
2022/12/12 03:23:38;;;;;;;17.60;8.73;;;-0.60;66.20;;;;;;5079598;28;20016;-61
2022/12/12 03:26:10;;;;;;;22.42;10.57;;;-0.60;66.20;;;;;;5077374;28;20054;-61
2022/12/12 03:28:48;;;;;;;18.00;9.77;;;-0.60;66.10;;;;;;5071251;28;20067;-61
2022/12/12 03:31:16;;;;;;;18.58;9.75;;;-0.60;66.10;;;;;;5079844;28;20051;-60
2022/12/12 03:33:52;;;;;;;18.73;10.18;;;-0.70;66.10;;;;;;5081565;28;20407;-61
2022/12/12 03:36:36;;;;;;;17.60;9.68;;;-0.40;66.50;;;;;;5077556;28;20115;-61
2022/12/12 03:39:25;;;;;;;18.85;9.70;;;-0.70;66.40;;;;;;5073927;28;20031;-62
2022/12/12 03:42:07;;;;;;;20.70;10.32;;;-0.70;66.50;;;;;;5078067;28;20070;-62
2022/12/12 03:44:41;;;;;;;19.13;10.52;;;-0.70;66.50;;;;;;5081214;28;20032;-60
2022/12/12 03:47:15;;;;;;;21.02;10.60;;;-0.70;66.50;;;;;;5082660;28;20070;-60
2022/12/12 03:50:27;;;;;;;11.47;7.13;;;-0.70;66.40;;;;;;5071626;28;20032;-62
2022/12/12 03:53:22;;;;;;;16.67;9.52;;;-0.50;66.70;;;;;;5078035;28;20041;-61
2022/12/12 03:55:54;;;;;;;;;;;-0.70;66.50;;;;;;5069896;28;20040;-60
2022/12/12 03:58:28;;;;;;;17.58;9.70;;;-0.50;66.80;;;;;;5077185;28;19923;-60
2022/12/12 04:00:56;;;;;;;17.40;9.65;;;-0.70;66.40;;;;;;5078609;28;20029;-60
2022/12/12 04:03:31;;;;;;;15.10;8.75;;;-0.80;66.40;;;;;;5076874;28;20353;-60
2022/12/12 04:15:27;;;;;;;19.92;9.57;;;-0.90;66.40;;;;;;5081397;28;20051;-60
2022/12/12 04:18:02;;;;;;;20.63;9.88;;;-0.90;66.40;;;;;;5064106;28;20033;-60
2022/12/12 04:23:47;;;;;;;18.95;9.93;;;-0.90;66.60;;;;;;5082353;28;20044;-61
2022/12/12 04:26:40;;;;;;;18.48;10.23;;;-0.90;66.60;;;;;;5079766;28;20058;-60
2022/12/12 04:29:17;;;;;;;20.33;9.88;;;-0.90;66.60;;;;;;4979893;28;20043;-61
2022/12/12 04:32:04;;;;;;;22.98;11.82;;;-0.90;66.60;;;;;;4972060;28;20513;-60
2022/12/12 04:34:36;;;;;;;19.50;10.93;;;-0.90;66.70;;;;;;4980080;28;20054;-62
2022/12/12 04:37:04;;;;;;;20.80;11.00;;;-0.90;66.70;;;;;;4985427;28;20058;-62
2022/12/12 04:39:31;;;;;;;20.02;10.63;;;-0.90;66.80;;;;;;4984977;28;20038;-60
2022/12/12 04:41:59;;;;;;;22.55;10.35;;;-0.90;66.80;;;;;;4979246;28;20022;-61
2022/12/12 04:44:28;;;;;;;29.85;11.30;;;-0.90;66.80;;;;;;4987572;28;20025;-60
2022/12/12 04:46:56;;;;;;;22.45;10.98;;;-0.90;66.90;;;;;;4982465;28;20101;-60
2022/12/12 04:49:26;;;;;;;24.30;10.02;;;-0.90;66.90;;;;;;4959937;28;20062;-61
2022/12/12 04:52:02;;;;;;;20.92;10.60;;;-0.90;67.00;;;;;;4979139;28;20061;-62
2022/12/12 04:54:46;;;;;;;23.80;10.13;;;-0.90;67.00;;;;;;4982299;28;20034;-61
2022/12/12 04:57:26;;;;;;;15.60;8.02;;;-0.90;67.10;;;;;;4972877;28;20034;-62
2022/12/12 04:59:53;;;;;;;16.73;9.23;;;-0.90;67.10;;;;;;4976974;28;20030;-61
2022/12/12 05:02:46;;;;;;;21.38;9.55;;;-0.80;67.10;;;;;;4985900;28;20035;-62
2022/12/12 05:05:19;;;;;;;21.77;10.43;;;-0.80;67.30;;;;;;4989682;28;20034;-60
2022/12/12 05:08:11;;;;;;;20.98;10.20;;;-0.80;67.40;;;;;;5081907;28;20036;-61
2022/12/12 05:10:45;;;;;;;21.45;10.18;;;-0.80;67.30;;;;;;5078627;28;20038;-60
2022/12/12 05:13:22;;;;;;;18.98;10.07;;;-0.80;67.30;;;;;;5086467;28;20021;-62
2022/12/12 05:15:51;;;;;;;20.58;10.20;;;-0.70;67.30;;;;;;5081257;28;20063;-60
2022/12/12 05:18:16;;;;;;;20.20;10.43;;;-0.70;67.30;;;;;;5080902;28;20043;-61
2022/12/12 05:20:42;;;;;;;20.05;10.52;;;-0.70;67.40;;;;;;5083125;28;20451;-62
2022/12/12 05:23:08;;;;;;;23.77;11.10;;;-0.70;67.40;;;;;;5088164;28;20046;-62
2022/12/12 05:25:34;;;;;;;24.25;12.52;;;-0.60;67.50;;;;;;5078083;28;20055;-61
2022/12/12 05:27:59;;;;;;;23.58;12.68;;;-0.60;67.50;;;;;;5081679;28;20036;-62
2022/12/12 05:30:25;;;;;;;26.73;13.13;;;-0.60;67.50;;;;;;5079236;28;20017;-62
2022/12/12 05:32:51;;;;;;;26.15;12.07;;;-0.60;67.50;;;;;;5083351;28;20048;-62
2022/12/12 05:35:16;;;;;;;23.60;11.70;;;-0.50;68.20;;;;;;5085676;28;20024;-62
2022/12/12 05:37:43;;;;;;;22.92;12.02;;;-0.50;67.60;;;;;;5087510;28;20028;-61
2022/12/12 05:40:11;;;;;;;21.23;11.80;;;-0.50;67.40;;;;;;5087265;28;20080;-62
2022/12/12 05:42:37;;;;;;;22.30;11.32;;;-0.50;67.40;;;;;;5085803;28;20089;-63
2022/12/12 05:45:04;;;;;;;20.73;10.98;;;-0.50;67.30;;;;;;5086193;28;20548;-62
2022/12/12 05:47:30;;;;;;;23.05;11.73;;;-0.40;67.30;;;;;;5079197;28;20047;-62
2022/12/12 05:49:55;;;;;;;28.80;12.82;;;-0.40;67.30;;;;;;5084303;28;20024;-61
2022/12/12 05:52:21;;;;;;;22.98;11.65;;;-0.40;67.20;;;;;;5089458;28;20054;-62
2022/12/12 05:54:47;;;;;;;23.35;12.43;;;-0.40;67.30;;;;;;5079889;28;20079;-62
2022/12/12 05:57:13;;;;;;;24.25;12.00;;;-0.40;67.30;;;;;;5084784;28;20028;-61
2022/12/12 05:59:38;;;;;;;24.65;12.27;;;-0.20;67.40;;;;;;5080597;28;22348;-61
2022/12/12 06:02:04;;;;;;;28.17;13.05;;;-0.30;67.40;;;;;;5083637;28;20037;-62
2022/12/12 06:04:30;;;;;;;57.20;20.83;;;-0.30;67.40;;;;;;5079060;28;20047;-62
2022/12/12 06:06:55;;;;;;;52.13;19.45;;;-0.30;67.30;;;;;;5078297;28;20033;-61
2022/12/12 06:09:21;;;;;;;51.00;19.10;;;-0.30;67.30;;;;;;5079578;28;20082;-62
2022/12/12 06:11:47;;;;;;;42.97;18.33;;;-0.30;67.40;;;;;;5064286;28;20029;-62
2022/12/12 06:14:12;;;;;;;34.92;15.90;;;-0.20;67.40;;;;;;5084700;28;20020;-62
2022/12/12 06:16:38;;;;;;;25.55;13.00;;;-0.30;67.30;;;;;;5078451;28;20013;-62
2022/12/12 06:19:04;;;;;;;24.63;12.57;;;-0.20;67.40;;;;;;5081150;28;20024;-62
2022/12/12 06:21:29;;;;;;;21.58;11.40;;;-0.20;67.40;;;;;;5081136;28;20035;-62
2022/12/12 06:23:55;;;;;;;21.63;11.40;;;-0.20;67.50;;;;;;5081842;28;20021;-62
2022/12/12 06:26:21;;;;;;;19.20;10.48;;;-0.20;67.40;;;;;;5083298;28;20348;-61
2022/12/12 06:28:47;;;;;;;20.75;11.23;;;-0.20;67.30;;;;;;5080742;28;20037;-62
2022/12/12 06:31:13;;;;;;;19.65;10.57;;;0.00;67.40;;;;;;5079569;28;20029;-62
2022/12/12 06:33:40;;;;;;;19.83;10.70;;;-0.20;67.30;;;;;;5077913;28;20028;-61
2022/12/12 06:36:12;;;;;;;22.17;11.30;;;-0.20;67.30;;;;;;5081837;28;20021;-62
2022/12/12 06:38:39;;;;;;;21.17;10.60;;;-0.20;67.40;;;;;;5080892;28;20027;-62
2022/12/12 06:41:07;;;;;;;18.17;9.75;;;-0.20;67.40;;;;;;5090725;28;20028;-61
2022/12/12 06:43:33;;;;;;;22.75;11.52;;;-0.20;67.30;;;;;;5076502;28;20046;-62
2022/12/12 06:46:07;;;;;;;22.67;10.63;;;-0.20;67.40;;;;;;5077954;28;20108;-62
2022/12/12 06:48:33;;;;;;;;;;;-0.20;67.50;;;;;;5082888;28;20063;-63
2022/12/12 06:51:03;;;;;;;20.70;10.02;;;0.20;68.00;;;;;;5083175;28;20391;-62
2022/12/12 06:53:29;;;;;;;19.83;10.88;;;-0.20;67.30;;;;;;5082243;28;20029;-62
2022/12/12 06:55:55;;;;;;;19.60;10.55;;;-0.10;67.40;;;;;;5084577;28;20058;-62
2022/12/12 06:58:21;;;;;;;22.20;11.73;;;-0.20;67.50;;;;;;5078701;28;20032;-61
2022/12/12 07:00:51;;;;;;;17.35;10.35;;;-0.10;67.60;;;;;;5072266;28;20036;-62
2022/12/12 07:03:17;;;;;;;20.33;10.82;;;-0.10;67.60;;;;;;5083925;28;20031;-60
2022/12/12 07:05:44;;;;;;;23.00;11.45;;;-0.10;67.60;;;;;;5068932;28;20021;-61
2022/12/12 07:08:10;;;;;;;21.00;11.15;;;0.00;67.70;;;;;;5073144;28;20127;-62
2022/12/12 07:10:36;;;;;;;25.33;12.52;;;-0.10;67.60;;;;;;5075749;28;21201;-62
2022/12/12 07:13:01;;;;;;;21.23;11.95;;;-0.10;67.60;;;;;;5079779;28;20020;-62
2022/12/12 07:15:27;;;;;;;20.80;12.18;;;0.00;67.70;;;;;;5062316;28;20029;-63
2022/12/12 07:17:53;;;;;;;34.45;18.00;;;0.00;67.70;;;;;;5022904;28;20034;-59
2022/12/12 07:20:19;;;;;;;27.00;13.80;;;0.00;67.70;;;;;;5075562;28;20048;-63
2022/12/12 07:22:45;;;;;;;29.02;14.38;;;0.00;67.70;;;;;;5078611;28;20035;-62
2022/12/12 07:25:11;;;;;;;26.25;13.70;;;0.00;67.80;;;;;;5075980;28;20032;-62
2022/12/12 07:27:37;;;;;;;24.80;12.13;;;0.00;67.70;;;;;;5061530;28;20059;-62
2022/12/12 07:30:03;;;;;;;22.83;12.00;;;0.20;67.80;;;;;;5080400;28;20025;-62
2022/12/12 07:32:29;;;;;;;22.75;11.82;;;0.10;67.70;;;;;;5075271;28;20021;-62
2022/12/12 07:34:55;;;;;;;24.52;12.52;;;0.10;67.60;;;;;;5074699;28;20093;-62
2022/12/12 07:37:21;;;;;;;24.90;13.27;;;0.10;67.60;;;;;;5076012;28;20035;-63
2022/12/12 07:39:46;;;;;;;29.30;14.50;;;0.40;67.80;;;;;;5074656;28;20033;-62
2022/12/12 07:42:12;;;;;;;32.20;15.15;;;0.20;67.60;;;;;;5075242;28;20049;-62
2022/12/12 07:44:38;;;;;;;31.45;14.95;;;0.20;67.40;;;;;;5075485;28;20037;-62
2022/12/12 07:47:05;;;;;;;29.70;14.80;;;0.30;67.40;;;;;;5078204;28;20419;-62
2022/12/12 07:49:30;;;;;;;28.10;13.65;;;0.30;67.30;;;;;;5070867;28;20060;-62
2022/12/12 07:51:56;;;;;;;26.95;13.85;;;0.30;67.10;;;;;;5080212;28;20025;-62
2022/12/12 07:54:22;;;;;;;29.73;14.88;;;0.30;67.00;;;;;;5082625;28;20016;-62
2022/12/12 07:56:47;;;;;;;34.83;16.20;;;0.30;66.90;;;;;;5081153;28;20029;-62
2022/12/12 07:59:13;;;;;;;32.00;14.73;;;0.20;66.90;;;;;;5078806;28;20459;-61
2022/12/12 08:01:39;;;;;;;28.33;13.65;;;0.20;66.90;;;;;;5072591;28;20522;-61
2022/12/12 08:04:04;;;;;;;26.60;13.52;;;0.20;67.00;;;;;;5060287;28;20024;-61
2022/12/12 08:06:30;;;;;;;26.77;12.65;;;0.20;67.00;;;;;;5092428;28;20024;-61
2022/12/12 08:08:56;;;;;;;29.48;14.00;;;0.30;67.00;;;;;;5079236;28;20120;-61
2022/12/12 08:11:23;;;;;;;29.08;14.07;;;0.30;67.00;;;;;;5078849;28;20075;-63
2022/12/12 08:13:51;;;;;;;27.05;13.40;;;0.30;67.00;;;;;;5081214;28;20097;-61
2022/12/12 08:16:27;;;;;;;23.85;12.98;;;0.30;67.00;;;;;;5079398;28;20327;-62
2022/12/12 08:18:54;;;;;;;27.35;13.32;;;0.40;67.00;;;;;;5082038;28;20060;-62
2022/12/12 08:21:21;;;;;;;23.65;12.63;;;0.70;67.20;;;;;;5065486;28;20020;-62
2022/12/12 08:23:47;;;;;;;25.98;13.73;;;0.60;67.00;;;;;;5085516;28;20031;-60
2022/12/12 08:26:15;;;;;;;26.42;12.73;;;0.60;66.90;;;;;;5084563;28;20024;-60
2022/12/12 08:28:43;;;;;;;25.98;13.23;;;0.70;66.90;;;;;;5083242;28;20037;-62
2022/12/12 08:31:12;;;;;;;31.15;14.82;;;1.00;66.90;;;;;;5076177;28;20048;-62
2022/12/12 08:33:38;;;;;;;25.85;13.30;;;0.80;66.70;;;;;;5082787;28;20092;-62
2022/12/12 08:36:14;;;;;;;31.25;14.68;;;0.90;66.60;;;;;;5075918;28;20027;-62
2022/12/12 08:38:40;;;;;;;24.80;13.18;;;0.90;66.40;;;;;;5076252;28;20020;-62
2022/12/12 08:41:06;;;;;;;24.65;13.60;;;1.20;66.60;;;;;;5085640;28;20495;-62
2022/12/12 08:43:32;;;;;;;28.63;13.77;;;1.10;66.50;;;;;;5080942;28;20055;-62
2022/12/12 08:46:02;;;;;;;26.38;13.88;;;1.20;67.30;;;;;;5080164;28;20028;-62
2022/12/12 08:48:29;;;;;;;26.70;13.57;;;1.30;66.50;;;;;;5087209;28;20071;-62
2022/12/12 08:50:56;;;;;;;26.63;14.52;;;1.40;66.40;;;;;;5075309;28;20044;-62
2022/12/12 08:53:23;;;;;;;21.35;12.07;;;1.40;66.10;;;;;;5073911;28;20020;-62
2022/12/12 08:55:49;;;;;;;28.92;13.77;;;1.50;66.00;;;;;;5079112;28;20024;-62
2022/12/12 08:58:15;;;;;;;25.20;13.98;;;1.60;66.00;;;;;;5078543;28;20109;-62
2022/12/12 09:00:40;;;;;;;28.00;14.40;;;1.70;65.90;;;;;;5082422;28;20023;-62
2022/12/12 09:03:06;;;;;;;28.45;13.52;;;1.70;65.80;;;;;;5074944;28;20055;-62
2022/12/12 09:05:32;;;;;;;27.50;13.93;;;1.80;65.80;;;;;;5077427;28;20024;-62
2022/12/12 09:08:01;;;;;;;26.38;14.73;;;1.90;65.80;;;;;;5083915;28;20040;-62
2022/12/12 09:10:27;;;;;;;24.65;13.70;;;2.00;65.60;;;;;;5078067;28;20104;-62
2022/12/12 09:12:54;;;;;;;26.00;14.07;;;2.00;65.30;;;;;;5065638;28;20025;-62
2022/12/12 09:15:20;;;;;;;25.20;13.55;;;2.10;65.30;;;;;;5066345;28;20549;-61
2022/12/12 09:17:46;;;;;;;26.75;13.30;;;2.10;65.20;;;;;;5074943;28;20044;-60
2022/12/12 09:20:12;;;;;;;29.05;14.95;;;2.20;65.10;;;;;;5083543;28;20046;-62
2022/12/12 09:22:38;;;;;;;26.55;14.18;;;2.20;65.10;;;;;;5078237;28;20035;-62
2022/12/12 09:25:05;;;;;;;24.27;13.68;;;2.30;65.00;;;;;;5064680;28;20052;-61
2022/12/12 09:27:30;;;;;;;24.85;13.80;;;2.40;64.90;;;;;;5076066;28;20071;-62
2022/12/12 09:29:56;;;;;;;26.67;14.10;;;2.40;64.90;;;;;;5080292;28;20028;-62
2022/12/12 09:32:22;;;;;;;25.73;13.35;;;2.50;64.90;;;;;;5066663;28;20044;-62
2022/12/12 09:34:48;;;;;;;26.23;13.93;;;2.60;65.00;;;;;;5061952;28;20052;-62
2022/12/12 09:37:13;;;;;;;24.60;13.52;;;2.60;65.00;;;;;;5079996;28;20841;-62
2022/12/12 09:39:39;;;;;;;22.70;13.25;;;2.70;64.90;;;;;;5083811;28;20285;-61
2022/12/12 09:42:23;;;;;;;22.17;12.43;;;2.80;64.80;;;;;;5090982;28;20028;-62
2022/12/12 09:44:52;;;;;;;22.23;12.52;;;2.90;64.10;;;;;;5081269;28;20029;-62
2022/12/12 09:47:41;;;;;;;23.73;12.75;;;3.00;64.20;;;;;;5058535;28;20702;-62
2022/12/12 09:50:28;;;;;;;23.63;12.48;;;3.10;63.90;;;;;;5077249;28;20036;-62
2022/12/12 09:52:57;;;;;;;26.85;14.48;;;3.20;63.60;;;;;;5081225;28;20024;-61
2022/12/12 09:55:25;;;;;;;36.08;18.42;;;3.30;63.80;;;;;;5078390;28;20849;-61
2022/12/12 09:58:05;;;;;;;46.95;21.67;;;3.40;63.90;;;;;;5081285;28;20027;-61
2022/12/12 10:00:35;;;;;;;33.55;19.13;;;3.50;63.60;;;;;;5082274;28;20025;-61
2022/12/12 10:03:18;;;;;;;25.90;15.05;;;3.50;63.30;;;;;;5071863;28;20032;-61
2022/12/12 10:05:49;;;;;;;27.67;15.07;;;3.60;63.10;;;;;;5078262;28;20043;-61
2022/12/12 10:08:23;;;;;;;21.73;13.05;;;3.70;62.90;;;;;;5080689;28;20039;-61
2022/12/12 10:10:56;;;;;;;17.33;9.73;;;3.70;62.70;;;;;;5076640;28;20031;-60
2022/12/12 10:13:28;;;;;;;22.47;11.17;;;3.80;62.60;;;;;;5076749;28;20044;-60
2022/12/12 10:16:00;;;;;;;17.95;10.52;;;3.80;62.50;;;;;;5082319;28;20029;-62
2022/12/12 10:18:37;;;;;;;17.85;10.63;;;3.90;62.60;;;;;;5099002;28;20043;-62
2022/12/12 10:21:11;;;;;;;25.05;12.30;;;3.90;61.80;;;;;;5074795;28;20040;-63
2022/12/12 10:23:43;;;;;;;25.30;14.05;;;3.90;61.80;;;;;;5094124;28;20036;-62
2022/12/12 10:26:15;;;;;;;20.50;11.48;;;3.90;61.70;;;;;;5082862;28;20035;-62
2022/12/12 10:28:41;;;;;;;22.70;11.57;;;3.90;61.40;;;;;;5079075;28;20039;-62
2022/12/12 10:31:25;;;;;;;21.08;12.23;;;4.00;61.90;;;;;;5075433;28;20084;-61
2022/12/12 10:33:51;;;;;;;22.98;12.95;;;4.00;61.60;;;;;;5083355;28;20035;-61
2022/12/12 10:36:32;;;;;;;24.23;13.90;;;4.00;61.10;;;;;;5084196;28;20025;-61
2022/12/12 10:39:01;;;;;;;24.15;12.50;;;4.00;60.90;;;;;;5078310;28;20074;-61
2022/12/12 10:41:52;;;;;;;19.30;11.48;;;4.00;61.90;;;;;;5079799;28;20024;-61
2022/12/12 10:44:20;;;;;;;14.95;9.63;;;4.10;60.50;;;;;;5075548;28;20039;-61
2022/12/12 10:47:07;;;;;;;22.73;9.65;;;4.10;61.40;;;;;;5073216;28;20099;-61
2022/12/12 10:49:34;;;;;;;19.02;9.88;;;4.20;60.30;;;;;;5074707;28;20107;-61
2022/12/12 10:52:03;;;;;;;18.83;10.20;;;4.30;61.20;;;;;;5075629;28;20075;-61
2022/12/12 10:54:35;;;;;;;20.02;9.25;;;4.40;61.00;;;;;;5061947;28;20036;-61
2022/12/12 10:57:08;;;;;;;14.00;8.93;;;4.50;61.00;;;;;;5076068;28;20021;-61
2022/12/12 10:59:48;;;;;;;17.35;8.63;;;4.50;59.90;;;;;;5075476;28;20094;-62
2022/12/12 11:02:35;;;;;;;15.73;8.02;;;4.70;59.60;;;;;;5079928;28;20039;-61
2022/12/12 11:05:18;;;;;;;15.20;8.15;;;4.80;59.40;;;;;;5061195;28;20442;-62
2022/12/12 11:07:47;;;;;;;11.65;7.05;;;5.00;60.00;;;;;;5074087;28;20040;-62
2022/12/12 11:10:21;;;;;;;11.32;6.68;;;5.10;60.00;;;;;;5088736;28;20023;-61
2022/12/12 11:13:00;;;;;;;13.25;6.95;;;5.20;58.60;;;;;;5084807;28;20116;-61
2022/12/12 11:15:38;;;;;;;22.98;7.35;;;5.20;58.60;;;;;;5079370;28;20382;-61
2022/12/12 11:18:05;;;;;;;11.63;5.95;;;5.20;58.30;;;;;;5062404;28;20044;-61
2022/12/12 11:20:31;;;;;;;7.78;4.88;;;5.50;58.50;;;;;;5067520;28;20112;-62
2022/12/12 11:22:57;;;;;;;8.90;5.50;;;5.10;57.90;;;;;;5078565;28;20051;-62
2022/12/12 11:25:29;;;;;;;12.65;6.28;;;5.00;57.60;;;;;;5076270;28;20025;-61
2022/12/12 11:27:58;;;;;;;15.63;7.53;;;4.90;57.50;;;;;;5079393;28;20036;-62
2022/12/12 11:30:35;;;;;;;16.30;10.18;;;4.70;57.60;;;;;;5085424;28;20030;-62
2022/12/12 11:33:04;;;;;;;18.75;9.82;;;4.60;57.60;;;;;;5072388;28;20032;-61
2022/12/12 11:35:37;;;;;;;19.27;11.35;;;4.50;58.00;;;;;;5084630;28;20052;-61
2022/12/12 11:38:17;;;;;;;26.50;10.15;;;4.40;58.00;;;;;;5083514;28;20028;-62
2022/12/12 11:40:44;;;;;;;14.38;8.00;;;4.30;58.40;;;;;;5077009;28;20033;-61
2022/12/12 11:43:26;;;;;;;11.65;5.88;;;4.30;58.50;;;;;;5075419;28;20276;-62
2022/12/12 11:46:00;;;;;;;10.90;5.70;;;4.20;57.70;;;;;;5080258;28;20111;-62
2022/12/12 11:48:38;;;;;;;10.27;4.65;;;4.10;56.90;;;;;;5083722;28;20058;-63
2022/12/12 11:51:04;;;;;;;8.68;4.75;;;4.00;57.10;;;;;;5079930;28;20024;-63
2022/12/12 11:53:38;;;;;;;8.88;4.95;;;3.90;57.60;;;;;;5079267;28;20028;-62
2022/12/12 11:56:13;;;;;;;9.05;4.63;;;3.90;57.40;;;;;;5080962;28;20081;-62
2022/12/12 11:58:41;;;;;;;10.93;5.13;;;3.80;57.60;;;;;;5087280;28;20028;-62
2022/12/12 12:01:29;;;;;;;8.10;4.93;;;3.80;57.60;;;;;;5076786;28;20036;-62
2022/12/12 12:04:15;;;;;;;7.43;4.45;;;3.80;56.80;;;;;;5084818;28;20021;-62
2022/12/12 12:07:22;;;;;;;8.65;5.60;;;3.80;57.80;;;;;;5080750;28;20056;-61
2022/12/12 12:10:01;;;;;;;7.38;4.43;;;3.70;56.70;;;;;;5085511;28;20031;-61
2022/12/12 12:12:45;;;;;;;7.70;4.05;;;3.70;57.50;;;;;;5079018;28;20087;-61
2022/12/12 12:15:23;;;;;;;5.07;2.85;;;3.70;57.00;;;;;;5075388;28;20024;-62
2022/12/12 12:18:07;;;;;;;6.22;3.90;;;3.70;57.50;;;;;;5078173;28;20033;-61
2022/12/12 12:21:02;;;;;;;7.03;4.22;;;3.70;58.00;;;;;;5076588;28;20514;-61
2022/12/12 12:23:49;;;;;;;7.38;4.28;;;3.70;57.90;;;;;;5072389;28;20049;-63
2022/12/12 12:26:22;;;;;;;6.95;4.18;;;3.80;57.80;;;;;;5076897;28;20077;-63
2022/12/12 12:28:56;;;;;;;15.73;7.97;;;3.80;57.90;;;;;;5080897;28;20025;-62
2022/12/12 12:31:27;;;;;;;19.63;9.95;;;3.80;57.90;;;;;;5071286;28;20368;-62
2022/12/12 12:34:04;;;;;;;21.08;10.82;;;3.90;58.20;;;;;;5084722;28;20055;-61
2022/12/12 12:36:56;;;;;;;32.55;12.70;;;3.90;58.40;;;;;;5080572;28;20028;-62
2022/12/12 12:39:30;;;;;;;24.88;11.68;;;3.80;58.40;;;;;;5082885;28;20025;-61
2022/12/12 12:41:56;;;;;;;;;;;3.80;58.70;;;;;;5079158;28;20012;-62
2022/12/12 12:44:33;;;;;;;22.85;10.15;;;3.80;58.30;;;;;;5067229;28;19908;-63
2022/12/12 12:47:08;;;;;;;24.52;10.95;;;3.80;58.70;;;;;;5071894;28;20045;-62
2022/12/12 12:49:45;;;;;;;29.83;16.08;;;3.80;58.70;;;;;;5083921;28;20036;-63
2022/12/12 12:52:37;;;;;;;33.35;14.65;;;3.70;58.80;;;;;;5085008;28;20052;-63
2022/12/12 12:55:10;;;;;;;22.83;13.40;;;3.70;59.00;;;;;;5069832;28;20041;-63
2022/12/12 12:57:41;;;;;;;25.83;13.60;;;3.70;59.20;;;;;;5078099;28;20105;-64
2022/12/12 13:00:18;;;;;;;25.27;12.50;;;3.60;59.30;;;;;;5082998;28;20024;-63
2022/12/12 13:03:01;;;;;;;19.95;11.13;;;3.60;59.30;;;;;;5073329;28;20025;-62
2022/12/12 13:05:45;;;;;;;23.23;11.80;;;3.60;59.40;;;;;;5073819;28;20434;-61
2022/12/12 13:08:19;;;;;;;26.95;12.20;;;3.70;59.40;;;;;;5083374;28;20382;-62
2022/12/12 13:10:49;;;;;;;29.75;12.73;;;3.70;59.60;;;;;;5078619;28;20067;-61
2022/12/12 13:13:25;;;;;;;25.23;12.73;;;3.70;59.50;;;;;;5076474;28;20070;-62
2022/12/12 13:16:03;;;;;;;29.33;13.55;;;3.70;59.30;;;;;;5077758;28;20021;-63
2022/12/12 13:18:30;;;;;;;23.58;11.65;;;3.70;59.40;;;;;;5077426;28;20032;-63